createdAt,value
2019-03-25T00:01:27.578Z,55.38
2019-03-25T00:04:19.007Z,55.48
2019-03-25T00:07:09.607Z,55.52
2019-03-25T00:10:00.582Z,55.59
2019-03-25T00:12:51.722Z,55.66
2019-03-25T00:15:42.700Z,55.71
2019-03-25T00:18:33.729Z,55.69
2019-03-25T00:21:24.551Z,55.74
2019-03-25T00:24:15.387Z,55.75
2019-03-25T00:27:06.140Z,55.76
2019-03-25T00:29:56.677Z,55.75
2019-03-25T00:32:47.525Z,55.81
2019-03-25T00:35:38.318Z,55.76
2019-03-25T00:38:29.136Z,55.86
2019-03-25T00:41:19.680Z,55.84
2019-03-25T00:44:10.530Z,55.94
2019-03-25T00:47:00.857Z,55.93
2019-03-25T00:49:51.647Z,56.00
2019-03-25T00:52:42.737Z,56.06
2019-03-25T00:55:33.860Z,56.23
2019-03-25T00:58:24.576Z,56.17
2019-03-25T01:01:15.724Z,56.26
2019-03-25T01:04:06.309Z,56.40
2019-03-25T01:06:56.662Z,56.61
2019-03-25T01:09:47.457Z,56.71
2019-03-25T01:12:37.974Z,56.82
2019-03-25T01:15:28.639Z,56.98
2019-03-25T01:18:20.033Z,57.12
2019-03-25T01:21:10.780Z,57.25
2019-03-25T01:24:01.241Z,57.34
2019-03-25T01:26:52.111Z,57.82
2019-03-25T01:29:42.724Z,58.06
2019-03-25T01:32:33.699Z,58.34
2019-03-25T01:35:24.448Z,58.67
2019-03-25T01:38:15.397Z,59.22
2019-03-25T01:41:06.677Z,58.93
2019-03-25T01:43:57.453Z,58.80
2019-03-25T01:46:48.229Z,58.99
2019-03-25T01:49:38.550Z,58.93
2019-03-25T01:52:30.367Z,59.17
2019-03-25T01:55:21.228Z,59.17
2019-03-25T01:58:11.972Z,58.89
2019-03-25T02:01:02.860Z,59.06
2019-03-25T02:03:53.887Z,58.85
2019-03-25T02:06:50.459Z,58.80
2019-03-25T02:09:41.226Z,58.64
2019-03-25T02:12:31.938Z,58.56
2019-03-25T02:15:22.768Z,58.36
2019-03-25T02:18:13.623Z,58.37
2019-03-25T02:21:05.929Z,58.36
2019-03-25T02:23:56.785Z,58.30
2019-03-25T02:26:47.698Z,58.20
2019-03-25T02:29:38.673Z,57.94
2019-03-25T02:32:30.616Z,57.71
2019-03-25T02:35:21.593Z,57.58
2019-03-25T02:38:12.221Z,57.37
2019-03-25T02:41:02.622Z,57.25
2019-03-25T02:43:53.161Z,57.16
2019-03-25T02:46:43.830Z,56.96
2019-03-25T02:49:35.317Z,56.83
2019-03-25T02:52:25.974Z,56.67
2019-03-25T02:55:16.270Z,56.51
2019-03-25T02:58:07.144Z,56.43
2019-03-25T03:00:57.953Z,56.28
2019-03-25T03:03:48.874Z,56.16
2019-03-25T03:06:39.353Z,56.15
2019-03-25T03:09:30.023Z,56.10
2019-03-25T03:12:20.751Z,56.13
2019-03-25T03:15:11.886Z,56.16
2019-03-25T03:18:02.233Z,56.11
2019-03-25T03:20:53.045Z,56.05
2019-03-25T03:23:43.813Z,56.06
2019-03-25T03:26:34.735Z,56.14
2019-03-25T03:29:25.697Z,56.19
2019-03-25T03:32:16.192Z,56.23
2019-03-25T03:35:06.756Z,56.16
2019-03-25T03:37:57.540Z,56.13
2019-03-25T03:40:48.281Z,56.08
2019-03-25T03:43:39.208Z,56.10
2019-03-25T03:46:30.397Z,56.08
2019-03-25T03:49:20.888Z,56.06
2019-03-25T03:52:12.702Z,56.07
2019-03-25T03:55:03.607Z,56.01
2019-03-25T03:57:56.881Z,55.87
2019-03-25T04:00:47.859Z,55.66
2019-03-25T04:03:37.948Z,55.57
2019-03-25T04:06:29.032Z,55.54
2019-03-25T04:09:19.758Z,55.67
2019-03-25T04:12:10.776Z,55.75
2019-03-25T04:15:01.815Z,55.79
2019-03-25T04:17:52.810Z,55.87
2019-03-25T04:20:44.013Z,55.77
2019-03-25T04:23:33.920Z,55.73
2019-03-25T04:26:29.098Z,55.69
2019-03-25T04:29:16.673Z,55.63
2019-03-25T04:32:07.612Z,55.51
2019-03-25T04:34:58.369Z,55.42
2019-03-25T04:37:49.047Z,55.35
2019-03-25T04:40:39.294Z,55.30
2019-03-25T04:43:30.150Z,55.22
2019-03-25T04:46:20.715Z,55.22
2019-03-25T04:49:11.807Z,55.12
2019-03-25T04:52:02.735Z,54.99
2019-03-25T04:54:53.937Z,54.95
2019-03-25T04:57:44.908Z,54.91
2019-03-25T05:00:37.912Z,54.90
2019-03-25T05:03:28.208Z,54.91
2019-03-25T05:06:19.250Z,54.90
2019-03-25T05:09:09.988Z,54.85
2019-03-25T05:12:00.525Z,54.85
2019-03-25T05:14:51.385Z,54.84
2019-03-25T05:17:42.199Z,54.82
2019-03-25T05:20:32.026Z,54.88
2019-03-25T05:23:22.520Z,54.79
2019-03-25T05:26:13.653Z,54.75
2019-03-25T05:29:04.761Z,54.74
2019-03-25T05:31:55.378Z,54.67
2019-03-25T05:34:48.569Z,54.54
2019-03-25T05:37:39.198Z,54.35
2019-03-25T05:40:30.252Z,54.26
2019-03-25T05:43:21.588Z,54.17
2019-03-25T05:46:12.180Z,54.05
2019-03-25T05:49:03.083Z,53.94
2019-03-25T05:51:54.163Z,53.79
2019-03-25T05:54:45.053Z,53.75
2019-03-25T05:57:36.930Z,53.60
2019-03-25T06:00:30.965Z,53.56
2019-03-25T06:03:22.477Z,53.47
2019-03-25T06:06:13.337Z,53.82
2019-03-25T06:09:04.854Z,53.79
2019-03-25T06:11:55.429Z,54.06
2019-03-25T06:14:46.549Z,54.17
2019-03-25T06:17:37.516Z,54.42
2019-03-25T06:20:28.292Z,54.29
2019-03-25T06:23:18.770Z,54.21
2019-03-25T06:26:09.473Z,53.97
2019-03-25T06:29:00.630Z,53.87
2019-03-25T06:31:51.338Z,53.83
2019-03-25T06:34:42.056Z,53.76
2019-03-25T06:37:32.721Z,53.86
2019-03-25T06:40:23.600Z,53.83
2019-03-25T06:43:16.001Z,53.86
2019-03-25T06:46:07.444Z,53.90
2019-03-25T06:48:58.235Z,53.79
2019-03-25T06:51:49.186Z,53.75
2019-03-25T06:54:40.203Z,53.64
2019-03-25T06:57:31.295Z,53.68
2019-03-25T07:00:22.562Z,53.80
2019-03-25T07:03:13.676Z,54.02
2019-03-25T07:06:04.503Z,53.97
2019-03-25T07:08:55.038Z,54.02
2019-03-25T07:11:46.096Z,53.88
2019-03-25T07:14:36.873Z,53.82
2019-03-25T07:17:27.743Z,53.80
2019-03-25T07:20:18.386Z,54.16
2019-03-25T07:23:08.428Z,54.33
2019-03-25T07:25:59.010Z,54.80
2019-03-25T07:28:49.787Z,54.87
2019-03-25T07:31:40.635Z,54.86
2019-03-25T07:34:31.762Z,55.05
2019-03-25T07:37:23.748Z,55.27
2019-03-25T07:40:14.761Z,55.17
2019-03-25T07:43:06.294Z,55.08
2019-03-25T07:45:57.287Z,55.29
2019-03-25T07:48:48.802Z,55.28
2019-03-25T07:51:39.463Z,55.27
2019-03-25T07:54:30.274Z,55.21
2019-03-25T07:57:20.750Z,55.27
2019-03-25T08:00:14.289Z,55.10
2019-03-25T08:03:05.269Z,55.11
2019-03-25T08:05:55.803Z,54.87
2019-03-25T08:08:46.565Z,54.75
2019-03-25T08:11:37.181Z,54.44
2019-03-25T08:14:28.079Z,54.29
2019-03-25T08:17:18.987Z,54.25
2019-03-25T08:20:11.121Z,54.12
2019-03-25T08:23:02.100Z,53.83
2019-03-25T08:25:53.243Z,53.60
2019-03-25T08:28:44.699Z,53.58
2019-03-25T08:31:35.855Z,53.27
2019-03-25T08:34:26.485Z,53.27
2019-03-25T08:37:17.541Z,52.59
2019-03-25T08:40:09.097Z,51.77
2019-03-25T08:42:59.588Z,51.37
2019-03-25T08:45:50.829Z,51.29
2019-03-25T08:48:42.254Z,49.91
2019-03-25T08:51:33.299Z,50.34
2019-03-25T08:54:23.892Z,49.98
2019-03-25T08:57:14.013Z,49.96
2019-03-25T09:00:04.749Z,49.80
2019-03-25T09:02:56.081Z,49.79
2019-03-25T09:05:47.097Z,49.62
2019-03-25T09:08:37.743Z,49.56
2019-03-25T09:11:28.578Z,49.81
2019-03-25T09:14:19.137Z,49.45
2019-03-25T09:17:09.843Z,48.12
2019-03-25T09:20:00.518Z,48.23
2019-03-25T09:22:51.808Z,48.68
2019-03-25T09:25:42.253Z,48.38
2019-03-25T09:28:33.181Z,48.44
2019-03-25T09:31:23.019Z,48.43
2019-03-25T09:34:13.417Z,48.55
2019-03-25T09:37:04.457Z,48.06
2019-03-25T09:39:54.904Z,48.28
2019-03-25T09:42:46.391Z,48.10
2019-03-25T09:45:37.314Z,48.10
2019-03-25T09:48:28.672Z,47.94
2019-03-25T09:51:19.337Z,47.67
2019-03-25T09:54:11.018Z,47.09
2019-03-25T09:57:01.511Z,46.75
2019-03-25T09:59:52.174Z,45.17
2019-03-25T10:02:42.545Z,43.51
2019-03-25T10:05:33.130Z,42.05
2019-03-25T10:08:24.107Z,41.08
2019-03-25T10:11:15.210Z,40.66
2019-03-25T10:14:06.164Z,40.73
2019-03-25T10:16:56.410Z,39.69
2019-03-25T10:19:47.519Z,40.24
2019-03-25T10:22:38.140Z,40.26
2019-03-25T10:25:29.923Z,40.77
2019-03-25T10:28:20.832Z,40.69
2019-03-25T10:31:11.325Z,41.16
2019-03-25T10:34:02.187Z,40.16
2019-03-25T10:36:53.247Z,40.91
2019-03-25T10:39:44.157Z,40.08
2019-03-25T10:42:35.003Z,40.55
2019-03-25T10:45:26.096Z,41.13
2019-03-25T10:48:16.373Z,40.47
2019-03-25T10:51:07.458Z,40.33
2019-03-25T10:53:58.193Z,39.98
2019-03-25T10:56:49.639Z,40.25
2019-03-25T10:59:41.222Z,40.64
2019-03-25T11:02:32.746Z,40.42
2019-03-25T11:05:22.758Z,40.21
2019-03-25T11:08:13.342Z,39.82
2019-03-25T11:11:06.259Z,39.86
2019-03-25T11:13:55.710Z,39.38
2019-03-25T11:16:46.119Z,39.68
2019-03-25T11:19:36.644Z,38.87
2019-03-25T11:22:27.742Z,38.00
2019-03-25T11:25:18.616Z,37.27
2019-03-25T11:28:09.975Z,37.32
2019-03-25T11:31:01.541Z,36.83
2019-03-25T11:33:52.336Z,36.45
2019-03-25T11:36:42.361Z,36.66
2019-03-25T11:39:32.673Z,36.62
2019-03-25T11:42:24.071Z,36.71
2019-03-25T11:45:15.465Z,36.10
2019-03-25T11:48:06.895Z,35.26
2019-03-25T11:50:57.957Z,36.62
2019-03-25T11:53:49.412Z,36.70
2019-03-25T11:56:39.264Z,37.02
2019-03-25T11:59:29.786Z,37.05
2019-03-25T12:02:20.430Z,37.06
2019-03-25T12:05:11.848Z,37.48
2019-03-25T12:08:02.619Z,37.47
2019-03-25T12:10:53.651Z,37.56
2019-03-25T12:13:44.641Z,37.53
2019-03-25T12:16:35.168Z,37.17
2019-03-25T12:19:26.117Z,38.07
2019-03-25T12:22:17.154Z,38.48
2019-03-25T12:25:07.246Z,38.33
2019-03-25T12:27:56.821Z,38.40
2019-03-25T12:30:47.357Z,38.44
2019-03-25T12:33:39.711Z,38.64
2019-03-25T12:36:30.628Z,38.93
2019-03-25T12:39:23.876Z,41.21
2019-03-25T12:42:14.458Z,42.45
2019-03-25T12:45:05.112Z,44.03
2019-03-25T12:47:55.596Z,45.00
2019-03-25T12:50:46.076Z,45.44
2019-03-25T12:53:37.040Z,45.37
2019-03-25T12:56:27.405Z,45.56
2019-03-25T12:59:18.351Z,47.78
2019-03-25T13:02:08.892Z,50.52
2019-03-25T13:04:59.915Z,53.04
2019-03-25T13:07:49.768Z,53.79
2019-03-25T13:10:40.356Z,54.78
2019-03-25T13:13:31.592Z,55.10
2019-03-25T13:16:21.872Z,56.40
2019-03-25T13:19:12.805Z,56.76
2019-03-25T13:22:03.607Z,56.29
2019-03-25T13:24:55.031Z,56.00
2019-03-25T13:27:45.509Z,56.58
2019-03-25T13:30:36.422Z,56.85
2019-03-25T13:33:26.587Z,57.57
2019-03-25T13:36:16.904Z,57.71
2019-03-25T13:39:08.660Z,58.54
2019-03-25T13:41:58.651Z,59.03
2019-03-25T13:44:50.065Z,59.83
2019-03-25T13:47:41.333Z,59.86
2019-03-25T13:50:32.121Z,60.62
2019-03-25T13:53:23.269Z,60.13
2019-03-25T13:56:14.351Z,59.99
2019-03-25T13:59:05.121Z,59.40
2019-03-25T14:01:56.208Z,59.48
2019-03-25T14:04:47.112Z,59.05
2019-03-25T14:07:37.651Z,58.99
2019-03-25T14:10:28.569Z,58.36
2019-03-25T14:13:19.051Z,58.59
2019-03-25T14:16:09.411Z,58.84
2019-03-25T14:19:00.252Z,59.46
2019-03-25T14:21:49.896Z,60.30
2019-03-25T14:24:40.737Z,59.91
2019-03-25T14:27:31.423Z,59.07
2019-03-25T14:30:22.711Z,59.08
2019-03-25T14:33:13.706Z,57.86
2019-03-25T14:36:05.386Z,58.80
2019-03-25T14:38:56.826Z,59.45
2019-03-25T14:41:47.568Z,58.69
2019-03-25T14:44:38.091Z,59.42
2019-03-25T14:47:28.503Z,60.30
2019-03-25T14:50:19.588Z,59.74
2019-03-25T14:53:10.585Z,60.15
2019-03-25T14:56:01.402Z,60.35
2019-03-25T14:58:51.258Z,60.54
2019-03-25T15:01:41.791Z,60.66
2019-03-25T15:04:32.421Z,61.17
2019-03-25T15:07:23.415Z,61.42
2019-03-25T15:10:14.509Z,61.63
2019-03-25T15:13:05.394Z,62.00
2019-03-25T15:15:56.415Z,61.29
2019-03-25T15:18:47.595Z,61.58
2019-03-25T15:21:38.760Z,61.21
2019-03-25T15:24:29.459Z,61.67
2019-03-25T15:27:19.273Z,62.26
2019-03-25T15:30:11.456Z,62.82
2019-03-25T15:33:01.885Z,62.47
2019-03-25T15:35:52.725Z,62.49
2019-03-25T15:38:43.522Z,62.94
2019-03-25T15:41:33.403Z,62.90
2019-03-25T15:44:24.073Z,63.33
2019-03-25T15:47:15.063Z,63.51
2019-03-25T15:50:06.334Z,63.56
2019-03-25T15:52:57.208Z,64.53
2019-03-25T15:55:48.255Z,66.02
2019-03-25T15:58:39.467Z,66.73
2019-03-25T16:01:30.163Z,66.97
2019-03-25T16:04:20.817Z,66.70
2019-03-25T16:07:11.952Z,67.00
2019-03-25T16:10:02.281Z,67.08
2019-03-25T16:12:53.152Z,67.36
2019-03-25T16:15:44.793Z,67.39
2019-03-25T16:18:41.703Z,67.38
2019-03-25T16:21:33.037Z,67.20
2019-03-25T16:24:23.911Z,67.46
2019-03-25T16:27:14.864Z,67.68
2019-03-25T16:30:06.381Z,68.04
2019-03-25T16:32:57.487Z,67.81
2019-03-25T16:35:48.339Z,67.86
2019-03-25T16:38:39.565Z,67.83
2019-03-25T16:41:30.046Z,67.94
2019-03-25T16:44:21.305Z,67.66
2019-03-25T16:47:11.920Z,67.49
2019-03-25T16:50:02.395Z,67.33
2019-03-25T16:52:53.292Z,67.12
2019-03-25T16:55:44.304Z,67.23
2019-03-25T16:58:34.923Z,67.12
2019-03-25T17:01:25.595Z,66.88
2019-03-25T17:04:16.878Z,67.04
2019-03-25T17:07:08.408Z,66.95
2019-03-25T17:09:59.477Z,67.01
2019-03-25T17:12:50.141Z,66.91
2019-03-25T17:15:40.833Z,66.76
2019-03-25T17:18:31.063Z,66.81
2019-03-25T17:21:22.294Z,66.89
2019-03-25T17:24:14.204Z,67.01
2019-03-25T17:27:05.855Z,67.08
2019-03-25T17:29:56.219Z,67.31
2019-03-25T17:32:46.925Z,67.65
2019-03-25T17:35:37.655Z,67.85
2019-03-25T17:38:29.058Z,67.88
2019-03-25T17:41:19.616Z,67.99
2019-03-25T17:44:10.165Z,68.04
2019-03-25T17:47:00.740Z,68.12
2019-03-25T17:49:50.914Z,68.17
2019-03-25T17:52:41.139Z,68.13
2019-03-25T17:55:32.485Z,68.29
2019-03-25T17:58:23.522Z,68.44
2019-03-25T18:01:32.096Z,68.50
2019-03-25T18:04:19.796Z,68.74
2019-03-25T18:07:10.214Z,68.97
2019-03-25T18:10:00.009Z,68.99
2019-03-25T18:12:49.922Z,69.02
2019-03-25T18:15:40.733Z,69.09
2019-03-25T18:18:31.285Z,69.25
2019-03-25T18:21:22.419Z,69.36
2019-03-25T18:24:12.804Z,69.48
2019-03-25T18:27:02.969Z,71.53
2019-03-25T18:29:53.558Z,74.64
2019-03-25T18:32:43.423Z,76.15
2019-03-25T18:35:32.914Z,76.60
2019-03-25T18:38:23.373Z,77.53
2019-03-25T18:41:14.024Z,77.82
2019-03-25T18:44:04.786Z,78.09
2019-03-25T18:46:56.021Z,78.09
2019-03-25T18:49:46.913Z,79.87
2019-03-25T18:52:37.766Z,81.55
2019-03-25T18:55:28.839Z,81.99
2019-03-25T18:58:20.109Z,82.05
2019-03-25T19:01:10.954Z,82.14
2019-03-25T19:04:01.500Z,82.10
2019-03-25T19:06:51.713Z,82.26
2019-03-25T19:09:42.404Z,82.13
2019-03-25T19:12:32.303Z,82.23
2019-03-25T19:15:23.084Z,82.22
2019-03-25T19:18:12.730Z,82.22
2019-03-25T19:21:03.579Z,82.26
2019-03-25T19:23:54.429Z,82.21
2019-03-25T19:26:45.206Z,82.31
2019-03-25T19:29:35.540Z,82.81
2019-03-25T19:32:26.566Z,82.98
2019-03-25T19:35:16.469Z,83.12
2019-03-25T19:38:07.188Z,83.27
2019-03-25T19:40:58.055Z,83.14
2019-03-25T19:43:48.401Z,83.17
2019-03-25T19:46:39.402Z,83.22
2019-03-25T19:49:30.130Z,83.11
2019-03-25T19:52:21.791Z,82.97
2019-03-25T19:55:13.067Z,82.62
2019-03-25T19:58:03.669Z,82.74
2019-03-25T20:00:53.984Z,82.92
2019-03-25T20:03:44.357Z,82.93
2019-03-25T20:06:35.687Z,82.87
2019-03-25T20:09:25.824Z,83.63
2019-03-25T20:12:16.695Z,83.94
2019-03-25T20:15:08.076Z,84.40
2019-03-25T20:17:58.817Z,84.34
2019-03-25T20:20:49.916Z,84.52
2019-03-25T20:23:40.553Z,84.46
2019-03-25T20:26:31.764Z,84.34
2019-03-25T20:29:22.110Z,84.34
2019-03-25T20:32:13.917Z,84.23
2019-03-25T20:35:04.207Z,84.12
2019-03-25T20:37:55.184Z,84.16
2019-03-25T20:40:45.827Z,84.18
2019-03-25T20:43:36.552Z,84.12
2019-03-25T20:46:27.132Z,84.11
2019-03-25T20:49:17.173Z,83.72
2019-03-25T20:52:08.068Z,83.89
2019-03-25T20:54:58.957Z,83.48
2019-03-25T20:57:49.010Z,83.81
2019-03-25T21:00:55.659Z,83.36
2019-03-25T21:03:46.668Z,83.68
2019-03-25T21:06:37.960Z,83.72
2019-03-25T21:09:29.763Z,83.69
2019-03-25T21:12:19.809Z,83.76
2019-03-25T21:15:10.818Z,83.62
2019-03-25T21:18:01.063Z,83.38
2019-03-25T21:20:51.731Z,83.78
2019-03-25T21:23:42.802Z,83.14
2019-03-25T21:26:32.996Z,83.54
2019-03-25T21:29:26.135Z,83.88
2019-03-25T21:32:16.744Z,83.70
2019-03-25T21:35:08.369Z,83.81
2019-03-25T21:37:59.435Z,82.95
2019-03-25T21:40:49.423Z,83.39
2019-03-25T21:43:40.020Z,83.19
2019-03-25T21:46:30.923Z,82.89
2019-03-25T21:49:22.008Z,83.40
2019-03-25T21:52:12.896Z,83.25
2019-03-25T21:55:03.507Z,83.35
2019-03-25T21:57:54.541Z,83.55
2019-03-25T22:00:45.451Z,83.58
2019-03-25T22:03:36.735Z,83.82
2019-03-25T22:06:27.600Z,83.60
2019-03-25T22:09:18.384Z,83.64
2019-03-25T22:12:09.308Z,83.84
2019-03-25T22:14:59.218Z,84.03
2019-03-25T22:17:50.860Z,84.33
2019-03-25T22:20:41.370Z,84.33
2019-03-25T22:23:32.070Z,84.02
2019-03-25T22:26:23.584Z,84.17
2019-03-25T22:29:15.329Z,84.07
2019-03-25T22:32:07.356Z,83.76
2019-03-25T22:34:58.520Z,83.64
2019-03-25T22:37:49.451Z,83.61
2019-03-25T22:40:40.142Z,83.53
2019-03-25T22:43:30.869Z,83.30
2019-03-25T22:46:21.501Z,83.39
2019-03-25T22:49:12.177Z,83.56
2019-03-25T22:52:03.107Z,83.30
2019-03-25T22:54:53.389Z,83.26
2019-03-25T22:57:43.828Z,83.55
2019-03-25T23:00:47.982Z,83.73
2019-03-25T23:03:39.855Z,83.93
2019-03-25T23:06:31.309Z,83.93
2019-03-25T23:09:21.832Z,84.05
2019-03-25T23:12:12.971Z,84.32
2019-03-25T23:15:03.478Z,84.12
2019-03-25T23:17:54.539Z,83.83
2019-03-25T23:20:45.140Z,83.96
2019-03-25T23:23:35.496Z,84.31
2019-03-25T23:26:25.376Z,83.64
2019-03-25T23:29:16.125Z,84.02
2019-03-25T23:32:06.859Z,83.82
2019-03-25T23:34:58.120Z,84.02
2019-03-25T23:37:48.952Z,84.10
2019-03-25T23:40:39.808Z,84.12
2019-03-25T23:43:29.965Z,83.83
2019-03-25T23:46:20.643Z,84.19
2019-03-25T23:49:11.133Z,84.00
2019-03-25T23:52:01.823Z,83.89
2019-03-25T23:54:53.428Z,84.26
2019-03-25T23:57:46.214Z,84.10
